createdAt,value
2022-08-26T00:00:07.013Z,8.90
2022-08-26T00:01:09.611Z,8.70
2022-08-26T00:02:12.702Z,13.15
2022-08-26T00:03:16.322Z,7.40
2022-08-26T00:04:18.473Z,8.77
2022-08-26T00:05:21.612Z,9.73
2022-08-26T00:06:25.824Z,8.30
2022-08-26T00:07:28.457Z,9.75
2022-08-26T00:08:31.151Z,9.02
2022-08-26T00:09:39.067Z,11.60
2022-08-26T00:10:44.973Z,8.30
2022-08-26T00:11:47.252Z,11.30
2022-08-26T00:12:50.025Z,8.77
2022-08-26T00:13:51.615Z,8.25
2022-08-26T00:14:55.895Z,8.07
2022-08-26T00:15:57.773Z,11.10
2022-08-26T00:17:00.425Z,12.90
2022-08-26T00:18:02.102Z,8.93
2022-08-26T00:19:04.734Z,8.85
2022-08-26T00:20:09.997Z,8.18
2022-08-26T00:21:12.864Z,13.90
2022-08-26T00:22:20.242Z,9.32
2022-08-26T00:23:24.497Z,7.50
2022-08-26T00:24:26.183Z,9.40
2022-08-26T00:25:29.964Z,12.63
2022-08-26T00:26:34.749Z,10.27
2022-08-26T00:27:37.529Z,10.15
2022-08-26T00:28:40.882Z,8.80
2022-08-26T00:29:43.458Z,10.18
2022-08-26T00:30:48.033Z,11.32
2022-08-26T00:31:54.236Z,11.70
2022-08-26T00:32:56.394Z,9.75
2022-08-26T00:33:59.561Z,11.57
2022-08-26T00:35:01.349Z,8.00
2022-08-26T00:36:05.157Z,9.05
2022-08-26T00:37:08.949Z,9.90
2022-08-26T00:38:12.904Z,9.85
2022-08-26T00:39:14.782Z,12.70
2022-08-26T00:40:21.410Z,10.27
2022-08-26T00:41:23.045Z,12.65
2022-08-26T00:42:27.645Z,8.52
2022-08-26T00:43:32.767Z,10.80
2022-08-26T00:44:48.990Z,8.63
2022-08-26T00:45:55.432Z,8.90
2022-08-26T00:47:01.624Z,10.65
2022-08-26T00:48:05.911Z,7.88
2022-08-26T00:49:14.917Z,11.02
2022-08-26T00:50:24.296Z,9.55
2022-08-26T00:51:29.674Z,8.27
2022-08-26T00:52:31.916Z,8.18
2022-08-26T00:53:38.187Z,9.95
2022-08-26T00:54:46.897Z,8.02
2022-08-26T00:55:54.540Z,8.50
2022-08-26T00:56:59.945Z,7.93
2022-08-26T00:58:04.704Z,8.57
2022-08-26T00:59:08.930Z,9.57
2022-08-26T01:00:15.533Z,11.02
2022-08-26T01:01:17.876Z,9.75
2022-08-26T01:02:21.087Z,8.57
2022-08-26T01:03:25.453Z,8.65
2022-08-26T01:04:29.716Z,7.97
2022-08-26T01:05:32.504Z,9.40
2022-08-26T01:06:35.096Z,11.25
2022-08-26T01:07:37.103Z,8.95
2022-08-26T01:08:39.681Z,8.73
2022-08-26T01:09:41.335Z,10.63
2022-08-26T01:10:45.233Z,10.32
2022-08-26T01:11:47.769Z,9.70
2022-08-26T01:12:54.349Z,10.70
2022-08-26T01:14:01.341Z,8.52
2022-08-26T01:15:06.478Z,10.65
2022-08-26T01:16:13.183Z,11.35
2022-08-26T01:17:15.181Z,9.73
2022-08-26T01:18:18.601Z,9.90
2022-08-26T01:19:23.689Z,9.18
2022-08-26T01:20:31.313Z,10.85
2022-08-26T01:21:40.651Z,12.55
2022-08-26T01:22:52.370Z,10.55
2022-08-26T01:23:57.433Z,9.95
2022-08-26T01:25:01.355Z,10.80
2022-08-26T01:26:08.696Z,11.43
2022-08-26T01:27:22.980Z,11.52
2022-08-26T01:28:29.190Z,10.15
2022-08-26T01:29:33.826Z,10.45
2022-08-26T01:30:37.851Z,9.35
2022-08-26T01:31:43.655Z,11.32
2022-08-26T01:32:45.914Z,11.10
2022-08-26T01:33:52.084Z,13.45
2022-08-26T01:34:54.150Z,10.10
2022-08-26T01:35:56.963Z,11.15
2022-08-26T01:37:04.469Z,10.32
2022-08-26T01:38:09.846Z,10.25
2022-08-26T01:39:12.015Z,11.18
2022-08-26T01:40:19.766Z,11.85
2022-08-26T01:41:27.100Z,11.90
2022-08-26T01:42:30.691Z,9.40
2022-08-26T01:43:33.301Z,12.10
2022-08-26T01:44:37.863Z,11.93
2022-08-26T01:45:41.469Z,12.45
2022-08-26T01:46:46.163Z,12.75
2022-08-26T01:47:49.029Z,12.35
2022-08-26T01:48:54.521Z,13.10
2022-08-26T01:49:57.440Z,14.10
2022-08-26T01:51:01.146Z,11.93
2022-08-26T01:52:05.217Z,16.80
2022-08-26T01:53:12.868Z,10.75
2022-08-26T01:54:15.000Z,11.60
2022-08-26T01:55:27.653Z,13.68
2022-08-26T01:56:36.580Z,12.27
2022-08-26T01:57:38.510Z,13.00
2022-08-26T01:58:44.445Z,11.93
2022-08-26T01:59:46.804Z,13.27
2022-08-26T02:00:49.639Z,11.82
2022-08-26T02:01:52.737Z,14.57
2022-08-26T02:03:16.574Z,14.02
2022-08-26T02:04:22.607Z,13.18
2022-08-26T02:05:25.438Z,17.25
2022-08-26T02:06:27.520Z,15.63
2022-08-26T02:07:30.620Z,13.07
2022-08-26T02:08:40.045Z,15.25
2022-08-26T02:09:43.523Z,14.82
2022-08-26T02:10:45.359Z,14.05
2022-08-26T02:11:48.626Z,11.63
2022-08-26T02:12:52.778Z,11.98
2022-08-26T02:13:57.604Z,12.88
2022-08-26T02:15:02.423Z,12.55
2022-08-26T02:16:09.192Z,12.20
2022-08-26T02:17:11.600Z,13.70
2022-08-26T02:18:14.531Z,13.73
2022-08-26T02:19:19.475Z,11.23
2022-08-26T02:20:23.093Z,13.82
2022-08-26T02:21:26.145Z,10.98
2022-08-26T02:22:28.661Z,9.85
2022-08-26T02:23:31.304Z,11.70
2022-08-26T02:24:49.333Z,13.98
2022-08-26T02:25:55.381Z,11.23
2022-08-26T02:26:58.054Z,14.52
2022-08-26T02:28:01.452Z,16.42
2022-08-26T02:29:07.955Z,14.23
2022-08-26T02:30:13.799Z,13.18
2022-08-26T02:31:16.522Z,12.27
2022-08-26T02:32:18.523Z,11.68
2022-08-26T02:33:21.357Z,15.13
2022-08-26T02:34:28.200Z,13.95
2022-08-26T02:35:34.822Z,12.95
2022-08-26T02:36:36.489Z,13.95
2022-08-26T02:37:39.636Z,11.40
2022-08-26T02:38:43.507Z,11.65
2022-08-26T02:39:50.223Z,14.82
2022-08-26T02:40:51.857Z,11.63
2022-08-26T02:41:54.580Z,16.17
2022-08-26T02:42:57.071Z,10.85
2022-08-26T02:44:00.013Z,11.45
2022-08-26T02:45:01.713Z,11.23
2022-08-26T02:46:05.831Z,14.05
2022-08-26T02:47:07.995Z,13.63
2022-08-26T02:48:13.303Z,13.43
2022-08-26T02:49:15.212Z,11.50
2022-08-26T02:50:19.853Z,12.15
2022-08-26T02:51:21.541Z,15.13
2022-08-26T02:52:25.337Z,16.30
2022-08-26T02:53:26.993Z,14.38
2022-08-26T02:54:30.447Z,11.18
2022-08-26T02:55:33.821Z,13.45
2022-08-26T02:56:36.460Z,12.32
2022-08-26T02:57:38.072Z,11.52
2022-08-26T02:58:40.674Z,14.55
2022-08-26T02:59:43.031Z,10.73
2022-08-26T03:00:53.129Z,13.73
2022-08-26T03:01:56.131Z,11.13
2022-08-26T03:02:59.371Z,11.02
2022-08-26T03:04:02.465Z,13.07
2022-08-26T03:05:06.011Z,11.50
2022-08-26T03:06:07.813Z,13.10
2022-08-26T03:07:11.603Z,12.80
2022-08-26T03:08:13.596Z,11.45
2022-08-26T03:09:18.485Z,11.27
2022-08-26T03:10:22.008Z,12.05
2022-08-26T03:11:29.736Z,12.30
2022-08-26T03:12:34.759Z,11.30
2022-08-26T03:13:37.449Z,11.50
2022-08-26T03:14:39.060Z,12.52
2022-08-26T03:15:42.449Z,12.48
2022-08-26T03:16:44.612Z,14.18
2022-08-26T03:17:51.196Z,11.30
2022-08-26T03:18:52.881Z,11.93
2022-08-26T03:19:57.234Z,13.55
2022-08-26T03:20:59.246Z,13.10
2022-08-26T03:22:02.252Z,12.40
2022-08-26T03:23:05.142Z,12.93
2022-08-26T03:24:09.845Z,12.35
2022-08-26T03:25:15.055Z,13.02
2022-08-26T03:26:16.686Z,15.65
2022-08-26T03:27:20.890Z,13.25
2022-08-26T03:28:22.474Z,12.65
2022-08-26T03:29:42.798Z,14.30
2022-08-26T03:30:45.801Z,13.10
2022-08-26T03:31:48.533Z,12.05
2022-08-26T03:32:50.904Z,14.93
2022-08-26T03:33:58.747Z,14.32
2022-08-26T03:35:02.003Z,12.88
2022-08-26T03:36:07.662Z,16.10
2022-08-26T03:37:10.346Z,17.52
2022-08-26T03:38:12.936Z,13.70
2022-08-26T03:39:15.523Z,16.58
2022-08-26T03:40:20.345Z,14.68
2022-08-26T03:41:23.394Z,13.45
2022-08-26T03:42:26.565Z,13.75
2022-08-26T03:43:29.140Z,17.10
2022-08-26T03:44:31.459Z,17.33
2022-08-26T03:45:35.565Z,15.05
2022-08-26T03:46:38.602Z,13.02
2022-08-26T03:47:42.853Z,15.15
2022-08-26T03:48:44.852Z,17.85
2022-08-26T03:49:47.482Z,14.68
2022-08-26T03:50:50.573Z,14.32
2022-08-26T03:51:53.152Z,16.80
2022-08-26T03:52:56.739Z,14.63
2022-08-26T03:54:00.529Z,14.45
2022-08-26T03:55:03.172Z,16.05
2022-08-26T03:56:06.009Z,19.27
2022-08-26T03:57:09.051Z,15.93
2022-08-26T03:58:12.301Z,14.70
2022-08-26T03:59:14.897Z,17.50
2022-08-26T04:00:18.422Z,17.42
2022-08-26T04:01:21.751Z,15.90
2022-08-26T04:02:23.494Z,14.95
2022-08-26T04:03:40.215Z,19.27
2022-08-26T04:04:42.827Z,15.32
2022-08-26T04:05:44.517Z,16.77
2022-08-26T04:06:47.546Z,17.75
2022-08-26T04:07:49.174Z,17.60
2022-08-26T04:08:53.115Z,21.90
2022-08-26T04:09:55.283Z,18.00
2022-08-26T04:10:58.058Z,16.42
2022-08-26T04:12:00.761Z,18.92
2022-08-26T04:13:02.378Z,18.92
2022-08-26T04:14:08.707Z,17.38
2022-08-26T04:15:13.458Z,19.98
2022-08-26T04:16:17.872Z,19.95
2022-08-26T04:17:19.682Z,17.90
2022-08-26T04:18:33.192Z,19.77
2022-08-26T04:19:38.948Z,17.55
2022-08-26T04:20:41.562Z,19.25
2022-08-26T04:21:43.542Z,26.38
2022-08-26T04:22:46.280Z,21.20
2022-08-26T04:23:48.141Z,21.23
2022-08-26T04:24:50.756Z,20.35
2022-08-26T04:25:52.357Z,17.77
2022-08-26T04:26:56.325Z,19.50
2022-08-26T04:27:58.940Z,23.17
2022-08-26T04:29:01.193Z,25.05
2022-08-26T04:30:06.554Z,24.85
2022-08-26T04:31:12.364Z,22.85
2022-08-26T04:32:15.414Z,24.65
2022-08-26T04:33:18.108Z,23.55
2022-08-26T04:34:35.508Z,24.25
2022-08-26T04:35:37.396Z,23.50
2022-08-26T04:36:40.944Z,26.33
2022-08-26T04:37:43.949Z,28.90
2022-08-26T04:38:46.717Z,20.27
2022-08-26T04:39:51.221Z,29.10
2022-08-26T04:40:53.974Z,25.42
2022-08-26T04:41:55.836Z,26.88
2022-08-26T04:43:00.541Z,27.38
2022-08-26T04:44:02.426Z,27.42
2022-08-26T04:45:09.906Z,30.20
2022-08-26T04:46:13.554Z,30.60
2022-08-26T04:47:16.268Z,33.33
2022-08-26T04:48:17.874Z,30.38
2022-08-26T04:49:21.284Z,32.47
2022-08-26T04:50:23.610Z,30.77
2022-08-26T04:51:28.358Z,35.05
2022-08-26T04:52:29.980Z,33.28
2022-08-26T04:53:33.608Z,33.58
2022-08-26T04:54:35.366Z,30.58
2022-08-26T04:55:42.686Z,36.53
2022-08-26T04:56:49.446Z,35.05
2022-08-26T04:57:51.528Z,40.42
2022-08-26T04:58:54.614Z,31.73
2022-08-26T04:59:56.229Z,38.33
2022-08-26T05:01:00.215Z,34.72
2022-08-26T05:02:03.629Z,36.55
2022-08-26T05:03:10.591Z,34.85
2022-08-26T05:04:12.537Z,34.53
2022-08-26T05:05:19.013Z,31.08
2022-08-26T05:06:22.375Z,35.60
2022-08-26T05:07:25.006Z,38.03
2022-08-26T05:08:26.731Z,36.92
2022-08-26T05:09:30.485Z,38.28
2022-08-26T05:10:34.907Z,36.40
2022-08-26T05:11:38.367Z,38.08
2022-08-26T05:12:39.939Z,38.30
2022-08-26T05:13:43.299Z,40.30
2022-08-26T05:14:45.141Z,42.65
2022-08-26T05:15:50.011Z,37.58
2022-08-26T05:16:53.889Z,36.50
2022-08-26T05:17:58.961Z,35.72
2022-08-26T05:19:03.521Z,40.90
2022-08-26T05:20:07.068Z,40.03
2022-08-26T05:21:09.043Z,44.70
2022-08-26T05:22:13.067Z,37.38
2022-08-26T05:23:15.439Z,40.33
2022-08-26T05:24:18.302Z,42.38
2022-08-26T05:25:19.946Z,38.92
2022-08-26T05:26:24.005Z,37.47
2022-08-26T05:27:27.365Z,35.75
2022-08-26T05:28:30.552Z,41.05
2022-08-26T05:29:32.188Z,37.55
2022-08-26T05:30:34.769Z,42.13
2022-08-26T05:31:36.448Z,38.13
2022-08-26T05:32:40.462Z,37.55
2022-08-26T05:33:42.732Z,34.08
2022-08-26T05:34:45.283Z,37.10
2022-08-26T05:35:47.741Z,33.70
2022-08-26T05:36:51.127Z,25.27
2022-08-26T05:37:52.728Z,26.08
2022-08-26T05:38:56.619Z,33.33
2022-08-26T05:39:58.251Z,23.95
2022-08-26T05:41:01.365Z,37.58
2022-08-26T05:42:04.021Z,32.75
2022-08-26T05:43:10.494Z,36.70
2022-08-26T05:44:18.740Z,35.92
2022-08-26T05:45:20.433Z,34.67
2022-08-26T05:46:23.078Z,35.08
2022-08-26T05:47:26.166Z,30.77
2022-08-26T05:48:29.408Z,34.50
2022-08-26T05:49:32.032Z,44.42
2022-08-26T05:50:38.277Z,43.33
2022-08-26T05:51:40.368Z,17.70
2022-08-26T05:52:42.974Z,49.78
2022-08-26T05:53:54.765Z,42.42
2022-08-26T05:54:57.941Z,38.70
2022-08-26T05:55:59.571Z,46.65
2022-08-26T05:57:02.744Z,28.58
2022-08-26T05:58:05.250Z,35.55
2022-08-26T05:59:14.642Z,42.13
2022-08-26T06:00:16.543Z,49.38
2022-08-26T06:01:22.064Z,45.40
2022-08-26T06:02:25.958Z,50.72
2022-08-26T06:03:31.524Z,24.35
2022-08-26T06:04:34.493Z,54.50
2022-08-26T06:05:39.273Z,30.13
2022-08-26T06:06:42.994Z,54.60
2022-08-26T06:08:04.089Z,42.88
2022-08-26T06:09:10.918Z,45.22
2022-08-26T06:10:31.693Z,42.60
2022-08-26T06:11:35.417Z,24.70
2022-08-26T06:12:37.542Z,49.80
2022-08-26T06:13:40.577Z,54.55
2022-08-26T06:14:43.165Z,54.22
2022-08-26T06:15:48.746Z,54.90
2022-08-26T06:16:51.418Z,34.08
2022-08-26T06:17:53.017Z,48.72
2022-08-26T06:18:57.588Z,50.40
2022-08-26T06:20:00.464Z,33.15
2022-08-26T06:21:13.435Z,51.80
2022-08-26T06:22:35.243Z,57.08
2022-08-26T06:23:52.772Z,50.80
2022-08-26T06:25:12.727Z,48.03
2022-08-26T06:26:16.218Z,35.55
2022-08-26T06:27:18.859Z,56.90
2022-08-26T06:28:21.477Z,54.58
2022-08-26T06:29:26.651Z,56.28
2022-08-26T06:30:28.290Z,58.85
2022-08-26T06:31:31.154Z,51.65
2022-08-26T06:32:35.695Z,28.13
2022-08-26T06:33:37.349Z,54.40
2022-08-26T06:34:41.310Z,52.03
2022-08-26T06:35:43.678Z,57.00
2022-08-26T06:36:47.266Z,54.20
2022-08-26T06:37:49.033Z,38.20
2022-08-26T06:38:53.505Z,54.15
2022-08-26T06:39:55.138Z,55.67
2022-08-26T06:40:59.763Z,54.47
2022-08-26T06:42:03.086Z,54.67
2022-08-26T06:43:05.939Z,40.92
2022-08-26T06:44:07.857Z,57.53
2022-08-26T06:45:11.373Z,36.85
2022-08-26T06:46:17.111Z,47.20
2022-08-26T06:47:18.754Z,49.72
2022-08-26T06:48:21.654Z,55.47
2022-08-26T06:49:27.251Z,43.75
2022-08-26T06:50:31.609Z,54.30
2022-08-26T06:51:35.031Z,48.20
2022-08-26T06:52:37.750Z,51.20
2022-08-26T06:53:41.962Z,50.95
2022-08-26T06:54:44.684Z,38.13
2022-08-26T06:55:46.817Z,50.85
2022-08-26T06:56:56.733Z,36.20
2022-08-26T06:57:58.364Z,42.50
2022-08-26T06:59:01.368Z,34.55
2022-08-26T07:00:04.656Z,37.50
2022-08-26T07:01:15.937Z,29.38
2022-08-26T07:02:20.841Z,45.53
2022-08-26T07:03:23.429Z,53.75
2022-08-26T07:04:25.067Z,47.15
2022-08-26T07:05:32.245Z,56.47
2022-08-26T07:06:37.072Z,49.03
2022-08-26T07:07:41.644Z,46.30
2022-08-26T07:08:44.510Z,45.33
2022-08-26T07:09:47.109Z,47.65
2022-08-26T07:10:52.109Z,47.28
2022-08-26T07:11:58.421Z,52.05
2022-08-26T07:13:00.677Z,45.67
2022-08-26T07:14:03.284Z,49.08
2022-08-26T07:15:05.767Z,47.88
2022-08-26T07:16:12.789Z,57.58
2022-08-26T07:17:16.272Z,50.90
2022-08-26T07:18:18.065Z,48.83
2022-08-26T07:19:27.618Z,49.70
2022-08-26T07:20:39.129Z,51.58
2022-08-26T07:21:44.498Z,51.47
2022-08-26T07:22:47.184Z,54.83
2022-08-26T07:23:49.522Z,49.90
2022-08-26T07:24:52.425Z,46.45
2022-08-26T07:25:54.017Z,51.00
2022-08-26T07:27:00.956Z,36.33
2022-08-26T07:28:03.123Z,43.25
2022-08-26T07:29:06.777Z,50.25
2022-08-26T07:30:14.763Z,53.88
2022-08-26T07:31:17.503Z,45.80
2022-08-26T07:32:22.974Z,45.08
2022-08-26T07:33:25.684Z,48.75
2022-08-26T07:34:27.390Z,35.10
2022-08-26T07:35:29.994Z,44.38
2022-08-26T07:36:32.934Z,46.15
2022-08-26T07:37:39.115Z,41.58
2022-08-26T07:38:41.766Z,45.15
2022-08-26T07:39:45.109Z,48.05
2022-08-26T07:40:47.908Z,45.50
2022-08-26T07:41:50.501Z,48.22
2022-08-26T07:42:54.135Z,45.85
2022-08-26T07:43:56.618Z,50.30
2022-08-26T07:44:59.717Z,48.33
2022-08-26T07:46:02.270Z,49.72
2022-08-26T07:47:10.547Z,49.75
2022-08-26T07:48:27.249Z,49.53
2022-08-26T07:49:29.966Z,45.28
2022-08-26T07:50:49.011Z,51.38
2022-08-26T07:51:55.308Z,44.25
2022-08-26T07:52:57.271Z,50.60
2022-08-26T07:53:59.881Z,45.70
2022-08-26T07:55:04.316Z,35.30
2022-08-26T07:56:06.328Z,32.55
2022-08-26T07:57:09.392Z,45.15
2022-08-26T07:58:12.664Z,48.08
2022-08-26T07:59:15.573Z,25.17
2022-08-26T08:00:18.670Z,47.50
2022-08-26T08:01:21.613Z,45.10
2022-08-26T08:02:25.394Z,44.95
2022-08-26T08:03:26.983Z,48.63
2022-08-26T08:04:29.599Z,43.05
2022-08-26T08:05:33.593Z,43.10
2022-08-26T08:06:36.692Z,41.88
2022-08-26T08:07:45.309Z,36.65
2022-08-26T08:08:50.802Z,39.80
2022-08-26T08:09:53.225Z,30.52
2022-08-26T08:10:56.251Z,40.42
2022-08-26T08:11:58.834Z,39.47
2022-08-26T08:13:04.227Z,48.03
2022-08-26T08:14:08.446Z,33.13
2022-08-26T08:15:13.281Z,30.92
2022-08-26T08:16:14.879Z,42.92
2022-08-26T08:17:17.505Z,38.83
2022-08-26T08:18:20.916Z,34.42
2022-08-26T08:19:24.342Z,38.53
2022-08-26T08:20:40.570Z,34.17
2022-08-26T08:21:47.999Z,41.90
2022-08-26T08:22:52.066Z,40.60
2022-08-26T08:23:57.755Z,38.83
2022-08-26T08:24:59.346Z,46.13
2022-08-26T08:26:02.580Z,38.33
2022-08-26T08:27:04.476Z,46.85
2022-08-26T08:28:07.041Z,43.90
2022-08-26T08:29:09.603Z,39.55
2022-08-26T08:30:13.835Z,28.63
2022-08-26T08:31:38.556Z,40.67
2022-08-26T08:32:44.286Z,25.90
2022-08-26T08:33:46.730Z,40.13
2022-08-26T08:34:49.560Z,41.83
2022-08-26T08:35:51.237Z,39.17
2022-08-26T08:36:54.912Z,36.63
2022-08-26T08:37:57.857Z,24.13
2022-08-26T08:39:00.479Z,38.38
2022-08-26T08:40:02.368Z,32.00
2022-08-26T08:41:05.640Z,35.72
2022-08-26T08:42:31.059Z,40.95
2022-08-26T08:43:40.426Z,31.83
2022-08-26T08:44:44.527Z,39.15
2022-08-26T08:45:55.956Z,36.75
2022-08-26T08:47:01.075Z,38.15
2022-08-26T08:48:06.938Z,39.15
2022-08-26T08:49:09.450Z,43.05
2022-08-26T08:50:21.493Z,33.50
2022-08-26T08:51:32.802Z,36.85
2022-08-26T08:52:35.711Z,29.75
2022-08-26T08:53:43.158Z,25.92
2022-08-26T08:54:45.904Z,40.40
2022-08-26T08:56:01.934Z,32.70
2022-08-26T08:57:09.682Z,34.35
2022-08-26T08:58:16.617Z,34.17
2022-08-26T08:59:24.060Z,30.30
2022-08-26T09:00:30.632Z,39.72
2022-08-26T09:01:42.221Z,41.05
2022-08-26T09:02:50.615Z,22.63
2022-08-26T09:04:01.737Z,30.42
2022-08-26T09:05:08.317Z,32.10
2022-08-26T09:06:17.400Z,34.58
2022-08-26T09:07:21.118Z,30.15
2022-08-26T09:08:28.261Z,31.88
2022-08-26T09:09:35.376Z,42.15
2022-08-26T09:10:39.973Z,34.22
2022-08-26T09:11:43.264Z,37.90
2022-08-26T09:12:46.922Z,38.03
2022-08-26T09:13:50.822Z,27.90
2022-08-26T09:15:03.064Z,34.50
2022-08-26T09:16:08.259Z,33.05
2022-08-26T09:17:21.168Z,36.75
2022-08-26T09:18:33.336Z,40.60
2022-08-26T09:19:41.545Z,37.10
2022-08-26T09:20:47.501Z,36.28
2022-08-26T09:21:56.843Z,37.13
2022-08-26T09:22:58.568Z,33.83
2022-08-26T09:24:01.720Z,31.55
2022-08-26T09:25:11.117Z,41.83
2022-08-26T09:26:17.783Z,31.73
2022-08-26T09:27:39.947Z,30.85
2022-08-26T09:28:43.068Z,31.17
2022-08-26T09:29:46.272Z,35.78
2022-08-26T09:31:02.688Z,34.90
2022-08-26T09:32:19.364Z,34.38
2022-08-26T09:33:29.250Z,37.10
2022-08-26T09:34:33.262Z,34.05
2022-08-26T09:35:39.161Z,33.97
2022-08-26T09:36:43.944Z,35.15
2022-08-26T09:38:56.734Z,37.17
2022-08-26T09:40:14.443Z,36.53
2022-08-26T09:41:26.534Z,35.83
2022-08-26T09:42:28.334Z,31.88
2022-08-26T09:43:31.169Z,37.20
2022-08-26T09:44:33.232Z,32.47
2022-08-26T09:45:37.361Z,33.38
2022-08-26T09:46:42.570Z,37.45
2022-08-26T09:47:54.437Z,35.10
2022-08-26T09:48:56.237Z,34.78
2022-08-26T09:50:02.033Z,31.27
2022-08-26T09:51:05.553Z,30.83
2022-08-26T09:52:15.746Z,36.47
2022-08-26T09:53:21.197Z,40.33
2022-08-26T09:54:32.344Z,40.40
2022-08-26T09:55:38.125Z,33.00
2022-08-26T09:56:39.782Z,37.40
2022-08-26T09:57:48.184Z,35.45
2022-08-26T09:58:51.428Z,33.63
2022-08-26T09:59:53.790Z,33.83
2022-08-26T10:01:01.217Z,33.00
2022-08-26T10:02:17.771Z,34.25
2022-08-26T10:03:25.940Z,35.72
2022-08-26T10:04:29.870Z,28.25
2022-08-26T10:05:38.304Z,31.50
2022-08-26T10:06:43.207Z,34.75
2022-08-26T10:07:48.733Z,35.50
2022-08-26T10:08:54.251Z,35.97
2022-08-26T10:09:55.943Z,36.85
2022-08-26T10:11:01.639Z,30.52
2022-08-26T10:12:07.003Z,32.65
2022-08-26T10:13:13.835Z,38.10
2022-08-26T10:14:18.863Z,34.22
2022-08-26T10:15:24.788Z,35.90
2022-08-26T10:16:29.201Z,37.75
2022-08-26T10:17:34.957Z,36.08
2022-08-26T10:18:41.534Z,29.77
2022-08-26T10:19:56.700Z,29.80
2022-08-26T10:21:04.841Z,34.22
2022-08-26T10:22:14.237Z,34.58
2022-08-26T10:23:18.949Z,38.20
2022-08-26T10:24:24.973Z,33.20
2022-08-26T10:25:29.541Z,35.25
2022-08-26T10:26:41.182Z,32.08
2022-08-26T10:27:51.003Z,32.50
2022-08-26T10:28:57.011Z,33.42
2022-08-26T10:30:05.530Z,34.78
2022-08-26T10:31:27.520Z,32.25
2022-08-26T10:32:35.078Z,30.95
2022-08-26T10:33:40.269Z,40.45
2022-08-26T10:34:42.326Z,29.90
2022-08-26T10:35:51.347Z,21.67
2022-08-26T10:37:16.002Z,32.03
2022-08-26T10:38:21.425Z,30.02
2022-08-26T10:39:27.503Z,33.83
2022-08-26T10:40:32.051Z,31.40
2022-08-26T10:41:39.421Z,34.33
2022-08-26T10:42:45.789Z,31.83
2022-08-26T10:43:51.721Z,32.42
2022-08-26T10:44:58.482Z,31.38
2022-08-26T10:46:05.131Z,32.13
2022-08-26T10:47:17.581Z,29.55
2022-08-26T10:48:26.261Z,26.63
2022-08-26T10:49:39.635Z,30.80
2022-08-26T10:50:43.403Z,33.05
2022-08-26T10:51:53.321Z,31.02
2022-08-26T10:52:58.885Z,29.88
2022-08-26T10:54:05.707Z,31.38
2022-08-26T10:55:16.015Z,29.55
2022-08-26T10:56:26.717Z,30.70
2022-08-26T10:57:39.999Z,26.17
2022-08-26T10:58:52.298Z,32.83
2022-08-26T11:00:00.114Z,32.63
2022-08-26T11:01:26.330Z,30.27
2022-08-26T11:02:33.681Z,29.85
2022-08-26T11:03:38.940Z,31.25
2022-08-26T11:04:48.535Z,31.48
2022-08-26T11:06:20.052Z,33.00
2022-08-26T11:07:43.339Z,32.08
2022-08-26T11:08:49.689Z,27.63
2022-08-26T11:09:52.826Z,32.78
2022-08-26T11:10:59.099Z,36.67
2022-08-26T11:12:09.935Z,31.10
2022-08-26T11:13:14.392Z,31.50
2022-08-26T11:14:42.010Z,31.85
2022-08-26T11:15:59.419Z,29.20
2022-08-26T11:17:04.078Z,30.75
2022-08-26T11:18:10.939Z,29.20
2022-08-26T11:20:01.497Z,30.77
2022-08-26T11:21:49.376Z,25.90
2022-08-26T11:22:53.650Z,26.77
2022-08-26T11:23:55.281Z,29.98
2022-08-26T11:25:05.322Z,27.58
2022-08-26T11:26:13.572Z,26.50
2022-08-26T11:28:02.166Z,29.65
2022-08-26T11:29:13.136Z,27.48
2022-08-26T11:30:43.960Z,31.30
2022-08-26T11:31:54.832Z,29.70
2022-08-26T11:32:59.246Z,33.95
2022-08-26T11:34:03.108Z,29.67
2022-08-26T11:35:06.999Z,23.42
2022-08-26T11:36:12.607Z,28.50
2022-08-26T11:37:17.915Z,31.00
2022-08-26T11:38:25.992Z,28.55
2022-08-26T11:39:36.522Z,27.90
2022-08-26T11:40:40.476Z,26.35
2022-08-26T11:41:44.844Z,27.55
2022-08-26T11:42:50.509Z,30.20
2022-08-26T11:43:52.867Z,21.85
2022-08-26T11:44:58.101Z,23.30
2022-08-26T11:46:02.815Z,28.52
2022-08-26T11:47:07.915Z,20.77
2022-08-26T11:48:17.826Z,24.40
2022-08-26T11:49:19.588Z,23.42
2022-08-26T11:50:25.951Z,23.75
2022-08-26T11:51:31.479Z,23.58
2022-08-26T11:52:34.548Z,24.88
2022-08-26T11:53:38.233Z,30.45
2022-08-26T11:54:41.337Z,19.60
2022-08-26T11:55:44.823Z,24.70
2022-08-26T11:56:51.396Z,24.10
2022-08-26T11:57:57.595Z,24.30
2022-08-26T11:59:02.365Z,23.52
2022-08-26T12:00:12.030Z,28.38
2022-08-26T12:01:27.057Z,30.08
2022-08-26T12:02:33.475Z,26.63
2022-08-26T12:03:41.397Z,21.33
2022-08-26T12:04:47.223Z,22.10
2022-08-26T12:05:51.977Z,19.33
2022-08-26T12:06:55.652Z,21.80
2022-08-26T12:08:00.720Z,26.30
2022-08-26T12:09:06.773Z,21.95
2022-08-26T12:10:29.386Z,24.17
2022-08-26T12:11:35.081Z,20.90
2022-08-26T12:12:38.671Z,20.30
2022-08-26T12:13:42.233Z,19.20
2022-08-26T12:14:46.112Z,18.77
2022-08-26T12:15:53.298Z,20.98
2022-08-26T12:17:09.990Z,20.83
2022-08-26T12:18:29.043Z,22.40
2022-08-26T12:19:34.041Z,19.33
2022-08-26T12:20:55.921Z,18.67
2022-08-26T12:22:03.685Z,18.33
2022-08-26T12:23:05.979Z,15.70
2022-08-26T12:24:09.500Z,23.65
2022-08-26T12:25:12.476Z,22.90
2022-08-26T12:26:22.445Z,19.33
2022-08-26T12:27:28.282Z,17.55
2022-08-26T12:28:30.932Z,18.50
2022-08-26T12:29:33.515Z,21.02
2022-08-26T12:30:35.912Z,16.90
2022-08-26T12:31:41.819Z,16.13
2022-08-26T12:32:57.504Z,17.33
2022-08-26T12:34:02.905Z,19.42
2022-08-26T12:36:14.815Z,19.83
2022-08-26T12:37:18.989Z,18.73
2022-08-26T12:38:21.710Z,14.68
2022-08-26T12:39:29.605Z,19.67
2022-08-26T12:40:37.104Z,19.00
2022-08-26T12:41:43.280Z,18.25
2022-08-26T12:42:46.710Z,16.60
2022-08-26T12:43:48.857Z,16.00
2022-08-26T12:44:59.468Z,17.88
2022-08-26T12:46:01.218Z,17.60
2022-08-26T12:47:06.766Z,14.68
2022-08-26T12:48:11.683Z,13.88
2022-08-26T12:49:17.708Z,18.75
2022-08-26T12:50:22.488Z,14.68
2022-08-26T12:51:28.388Z,17.30
2022-08-26T12:52:34.250Z,18.75
2022-08-26T12:53:42.136Z,17.35
2022-08-26T12:55:02.741Z,13.38
2022-08-26T12:56:18.166Z,14.60
2022-08-26T12:57:30.578Z,15.65
2022-08-26T12:58:34.858Z,15.45
2022-08-26T12:59:36.479Z,14.35
2022-08-26T13:00:41.127Z,15.85
2022-08-26T13:01:45.585Z,17.77
2022-08-26T13:02:47.365Z,14.20
2022-08-26T13:03:51.858Z,15.35
2022-08-26T13:05:00.705Z,13.80
2022-08-26T13:06:27.210Z,14.52
2022-08-26T13:07:29.944Z,13.63
2022-08-26T13:08:33.560Z,13.80
2022-08-26T13:09:37.389Z,16.88
2022-08-26T13:10:41.901Z,15.57
2022-08-26T13:11:58.707Z,17.35
2022-08-26T13:13:00.290Z,13.07
2022-08-26T13:14:06.871Z,13.55
2022-08-26T13:15:09.384Z,15.80
2022-08-26T13:16:13.336Z,14.02
2022-08-26T13:17:15.011Z,16.52
2022-08-26T13:18:17.624Z,13.60
2022-08-26T13:19:20.965Z,15.05
2022-08-26T13:20:23.642Z,16.75
2022-08-26T13:21:28.782Z,13.70
2022-08-26T13:22:33.649Z,11.05
2022-08-26T13:23:42.319Z,10.50
2022-08-26T13:24:44.470Z,14.05
2022-08-26T13:25:47.062Z,14.80
2022-08-26T13:26:50.586Z,14.05
2022-08-26T13:27:52.212Z,16.70
2022-08-26T13:29:01.829Z,15.07
2022-08-26T13:30:04.395Z,13.55
2022-08-26T13:31:07.313Z,12.80
2022-08-26T13:32:09.199Z,14.93
2022-08-26T13:33:12.561Z,13.77
2022-08-26T13:34:20.015Z,14.27
2022-08-26T13:35:21.629Z,12.93
2022-08-26T13:36:24.251Z,12.50
2022-08-26T13:37:34.720Z,12.07
2022-08-26T13:38:39.263Z,12.00
2022-08-26T13:39:41.939Z,14.50
2022-08-26T13:40:44.698Z,14.35
2022-08-26T13:41:46.560Z,14.43
2022-08-26T13:42:49.525Z,9.95
2022-08-26T13:43:52.572Z,10.88
2022-08-26T13:44:57.946Z,16.27
2022-08-26T13:46:01.418Z,8.85
2022-08-26T13:47:04.065Z,11.02
2022-08-26T13:48:08.147Z,10.88
2022-08-26T13:49:10.086Z,17.17
2022-08-26T13:50:12.837Z,12.80
2022-08-26T13:51:16.445Z,13.95
2022-08-26T13:52:18.056Z,9.45
2022-08-26T13:53:33.500Z,9.13
2022-08-26T13:54:36.701Z,8.77
2022-08-26T13:55:39.294Z,8.20
2022-08-26T13:56:41.899Z,10.02
2022-08-26T13:57:43.637Z,10.32
2022-08-26T13:58:46.435Z,8.85
2022-08-26T13:59:48.865Z,7.90
2022-08-26T14:00:51.497Z,15.60
2022-08-26T14:01:53.124Z,10.18
2022-08-26T14:02:56.077Z,11.43
2022-08-26T14:03:57.932Z,10.57
2022-08-26T14:05:00.578Z,11.75
2022-08-26T14:06:02.515Z,9.77
2022-08-26T14:07:05.239Z,15.45